MSC Gabriella — 3FRR — position and weather

sailwx.info

Track history (hours):
 
Tides and Currents Weather Stations Pressure Air Temp Water Temp Dewpoint Dewpoint Depression Visibility Wind Speed Wind Dir Waves Ship Positions

MSC Gabriella

Last reported at 2017-Sep-25 05:49 UTC. Time now 2017-Sep-25 06:14 UTC.
Position N 06°08' E 001°17'.

Length 189 m; draft 7.7 m.

Type: Ship (hazmat cat A). MMSI: 371813424.

Date/timePositionNaut miles runAvg speedWind from/ knotsBaromVisibWave heightAir tempDewpointWater temp
2017-Sep-25 05:49N 06°08' E 001°17'0 0.0
2017-Sep-25 05:28N 06°08' E 001°17'0 0.0
2017-Sep-25 04:49N 06°08' E 001°17'0 0.0
2017-Sep-25 03:19N 06°08' E 001°17'0 0.0
2017-Sep-25 02:31N 06°08' E 001°17'0 0.0
2017-Sep-25 02:19N 06°08' E 001°17'0 0.0
2017-Sep-25 01:52N 06°08' E 001°17'0 0.0
2017-Sep-24 22:37N 06°08' E 001°17'64 3.2
2017-Sep-24 02:44N 05°27' E 000°27'313.9
2017-Sep-24 02:30N 05°25' E 000°24'714.0
2017-Sep-24 02:00N 05°23' E 000°18'713.8
2017-Sep-24 01:30N 05°21' E 000°11'713.9
2017-Sep-24 01:00N 05°19' E 000°05'713.8
2017-Sep-24 00:30N 05°16' W 000°02'713.7
2017-Sep-24 00:00N 05°14' W 000°08'1413.6
2017-Sep-23 23:00N 05°10' W 000°22'  
Track history (hours):
 
Tides and Currents Weather Stations Pressure Air Temp Water Temp Dewpoint Dewpoint Depression Visibility Wind Speed Wind Dir Waves Ship Positions

MSC Gabriella

Last reported at 2017-Sep-25 05:49 UTC. Time now 2017-Sep-25 06:14 UTC.
Position N 06°08' E 001°17'.

Length 189 m; draft 7.7 m.

Type: Ship (hazmat cat A). MMSI: 371813424.

Date/timePositionNaut miles runAvg speedWind from/ knotsBaromVisibWave heightAir tempDewpointWater temp
2017-Sep-25 05:49N 06°08' E 001°17'0 0.0
2017-Sep-25 05:28N 06°08' E 001°17'0 0.0
2017-Sep-25 04:49N 06°08' E 001°17'0 0.0
2017-Sep-25 03:19N 06°08' E 001°17'0 0.0
2017-Sep-25 02:31N 06°08' E 001°17'0 0.0
2017-Sep-25 02:19N 06°08' E 001°17'0 0.0
2017-Sep-25 01:52N 06°08' E 001°17'0 0.0
2017-Sep-24 22:37N 06°08' E 001°17'64 3.2
2017-Sep-24 02:44N 05°27' E 000°27'313.9
2017-Sep-24 02:30N 05°25' E 000°24'714.0
2017-Sep-24 02:00N 05°23' E 000°18'713.8
2017-Sep-24 01:30N 05°21' E 000°11'713.9
2017-Sep-24 01:00N 05°19' E 000°05'713.8
2017-Sep-24 00:30N 05°16' W 000°02'713.7
2017-Sep-24 00:00N 05°14' W 000°08'1413.6
2017-Sep-23 23:00N 05°10' W 000°22'  

Dump ship's entire track history